Ryoei Maru — JL6703 — position and weather

sailwx.info

Track history (hours):
 
Tides and Currents Weather Stations Pressure Air Temp Water Temp Dewpoint Dewpoint Depression Visibility Wind Speed Wind Dir Waves Ship Positions

Ryoei Maru

Last reported at 2016-May-31 11:33 UTC. Time now 2016-May-31 16:06 UTC.
Position N 34°03' E 134°59'.

Length 95 m; draft 5 m.

Type: Cargo ship. MMSI: 431501749.

Date/timePositionNaut miles runAvg speedWind from/ knotsBaromVisibWave heightAir tempDewpointWater temp
2016-May-31 11:33N 34°03' E 134°59'1312.8
2016-May-31 10:33N 34°16' E 134°59'1212.2
2016-May-31 09:33N 34°28' E 135°02'9 9.1
2016-May-31 08:32N 34°37' E 134°59'5 0.2
2016-May-30 12:31N 34°38' E 134°53'1010.6
2016-May-30 11:34N 34°36' E 135°06'1212.1
2016-May-30 10:33N 34°37' E 135°20'4 4.3
2016-May-30 09:33N 34°37' E 135°26'0 0.0
2016-May-30 08:33N 34°37' E 135°26'0 0.0
2016-May-30 07:33N 34°37' E 135°26'0 0.0
2016-May-30 06:27N 34°37' E 135°26'0 0.0
2016-May-30 05:27N 34°37' E 135°26'0 0.0
2016-May-30 03:27N 34°37' E 135°26'0 0.0
2016-May-30 02:09N 34°37' E 135°26'0 0.0
2016-May-30 01:27N 34°37' E 135°26'0 0.0
2016-May-30 00:33N 34°37' E 135°26'0 0.0
2016-May-29 23:33N 34°37' E 135°26'0 0.0
2016-May-29 22:15N 34°37' E 135°26'0 0.0
2016-May-29 21:27N 34°37' E 135°26'0 0.0
2016-May-29 20:33N 34°37' E 135°26'0 0.0
2016-May-29 19:33N 34°37' E 135°26'0 0.0
2016-May-29 18:33N 34°37' E 135°26'0 0.0
2016-May-29 17:33N 34°37' E 135°26'0 0.0
2016-May-29 16:33N 34°37' E 135°26'0 0.0
2016-May-29 15:21N 34°37' E 135°26'0 0.0
2016-May-29 14:33N 34°37' E 135°26'0 0.0
2016-May-29 13:33N 34°37' E 135°26'0 0.0
2016-May-29 12:33N 34°37' E 135°26'0 0.0
2016-May-29 11:27N 34°37' E 135°26'0 0.0
2016-May-29 10:27N 34°37' E 135°26'0 0.0
2016-May-29 09:33N 34°37' E 135°26'0 0.0
2016-May-29 08:33N 34°37' E 135°26'0 0.0
2016-May-29 07:27N 34°37' E 135°26'0 0.0
2016-May-29 06:15N 34°37' E 135°26'0 0.1
2016-May-29 05:33N 34°37' E 135°26'0 0.0
2016-May-29 04:33N 34°37' E 135°26'0 0.0
2016-May-29 03:27N 34°37' E 135°26'0 0.0
2016-May-29 02:33N 34°37' E 135°26'0 0.0
2016-May-29 01:33N 34°37' E 135°26'1 1.1
2016-May-29 00:33N 34°37' E 135°24'6 5.8
2016-May-28 23:33N 34°35' E 135°18'0 0.0
2016-May-28 22:33N 34°35' E 135°18'6 6.0
2016-May-28 21:33N 34°30' E 135°14'1211.9
2016-May-28 20:32N 34°21' E 135°04'1010.6
2016-May-28 19:33N 34°11' E 134°59'1312.7
2016-May-28 18:32N 33°59' E 135°00'23111.0
2016-May-27 21:33N 34°41' E 139°35'1512.5
2016-May-27 20:23N 34°48' E 139°50'1011.9
2016-May-27 19:33N 34°53' E 140°01'1111.2
2016-May-27 18:33N 34°58' E 140°13'1510.1
2016-May-27 17:04N 35°06' E 140°28'5 8.9
2016-May-27 16:29N 35°10' E 140°32'5111.5
2016-May-27 12:05N 35°56' E 140°58'  
2016-May-24 23:30N 36°37' E 141°03'1313.2
2016-May-24 22:33N 36°24' E 141°02'1313.5
2016-May-24 21:33N 36°11' E 141°00'1313.1
2016-May-24 20:33N 35°58' E 140°58'1513.4
2016-May-24 19:25N 35°43' E 140°57'1213.0
2016-May-24 18:32N 35°32' E 140°50'1313.5
2016-May-24 17:33N 35°21' E 140°41'2114.9
2016-May-24 16:09N 35°05' E 140°25'915.1
2016-May-24 15:33N 34°59' E 140°17'1514.7
2016-May-24 14:33N 34°52' E 140°01'1413.7
2016-May-24 13:33N 34°46' E 139°46'1313.1
2016-May-24 12:33N 34°40' E 139°32'1313.1
2016-May-24 11:34N 34°36' E 139°17'1313.2
2016-May-24 10:33N 34°33' E 139°01'20311.7
2016-May-23 17:11N 33°52' E 135°00'1012.9
2016-May-23 16:25N 34°01' E 134°60'1112.9
2016-May-23 15:33N 34°13' E 134°59'1111.2
2016-May-23 14:33N 34°23' E 135°02'1212.5
2016-May-23 13:33N 34°32' E 135°13'1111.4
2016-May-23 12:33N 34°37' E 135°25'0 0.4
2016-May-23 11:32N 34°37' E 135°26'0 0.0
2016-May-23 10:32N 34°37' E 135°26'0 0.0
2016-May-23 09:32N 34°37' E 135°26'0 0.0
2016-May-23 07:32N 34°37' E 135°26'0 0.0
2016-May-23 06:20N 34°37' E 135°26'0 0.0
2016-May-23 05:26N 34°37' E 135°26'0 0.0
2016-May-23 04:32N 34°37' E 135°26'0 0.0
2016-May-23 03:32N 34°37' E 135°26'0 0.0
2016-May-23 02:26N 34°37' E 135°26'0 0.1
2016-May-23 01:32N 34°37' E 135°26'0 0.0
2016-May-23 00:32N 34°37' E 135°26'0 0.0
2016-May-22 23:26N 34°37' E 135°26'0 0.0
2016-May-22 22:32N 34°37' E 135°26'0 0.0
2016-May-22 21:20N 34°37' E 135°26'0 0.0
2016-May-22 20:32N 34°37' E 135°26'0 0.0
2016-May-22 19:32N 34°37' E 135°26'0 0.0
2016-May-22 18:32N 34°37' E 135°26'0 0.0
2016-May-22 17:32N 34°37' E 135°26'0 0.0
2016-May-22 16:32N 34°37' E 135°26'0 0.0
2016-May-22 15:08N 34°37' E 135°26'0 0.0
2016-May-22 14:32N 34°37' E 135°26'0 0.0
2016-May-22 13:32N 34°37' E 135°26'0 0.0
2016-May-22 12:32N 34°37' E 135°26'0 0.0
2016-May-22 11:32N 34°37' E 135°26'0 0.0
2016-May-22 10:32N 34°37' E 135°26'0 0.0
2016-May-22 09:32N 34°37' E 135°26'0 0.0
2016-May-22 08:26N 34°37' E 135°26'0 0.0
2016-May-22 07:20N 34°37' E 135°26'0 0.0
2016-May-22 06:32N 34°37' E 135°26'0 0.0
2016-May-22 05:32N 34°37' E 135°26'0 0.0
2016-May-22 04:32N 34°37' E 135°26'0 0.0
2016-May-22 03:32N 34°37' E 135°26'0 0.0
2016-May-22 02:26N 34°37' E 135°26'0 0.1
2016-May-22 01:32N 34°37' E 135°26'5 5.6
2016-May-22 00:33N 34°36' E 135°19'1 0.7
2016-May-21 23:30N 34°35' E 135°18'0 0.0
2016-May-21 22:30N 34°35' E 135°18'7 6.9
2016-May-21 21:33N 34°30' E 135°13'1612.1
2016-May-21 20:16N 34°19' E 135°00'911.5
2016-May-21 19:30N 34°10' E 134°59'  
Track history (hours):
 
Tides and Currents Weather Stations Pressure Air Temp Water Temp Dewpoint Dewpoint Depression Visibility Wind Speed Wind Dir Waves Ship Positions

Ryoei Maru

Last reported at 2016-May-31 11:33 UTC. Time now 2016-May-31 16:06 UTC.
Position N 34°03' E 134°59'.

Length 95 m; draft 5 m.

Type: Cargo ship. MMSI: 431501749.

Date/timePositionNaut miles runAvg speedWind from/ knotsBaromVisibWave heightAir tempDewpointWater temp
2016-May-31 11:33N 34°03' E 134°59'1312.8
2016-May-31 10:33N 34°16' E 134°59'1212.2
2016-May-31 09:33N 34°28' E 135°02'9 9.1
2016-May-31 08:32N 34°37' E 134°59'5 0.2
2016-May-30 12:31N 34°38' E 134°53'1010.6
2016-May-30 11:34N 34°36' E 135°06'1212.1
2016-May-30 10:33N 34°37' E 135°20'4 4.3
2016-May-30 09:33N 34°37' E 135°26'0 0.0
2016-May-30 08:33N 34°37' E 135°26'0 0.0
2016-May-30 07:33N 34°37' E 135°26'0 0.0
2016-May-30 06:27N 34°37' E 135°26'0 0.0
2016-May-30 05:27N 34°37' E 135°26'0 0.0
2016-May-30 03:27N 34°37' E 135°26'0 0.0
2016-May-30 02:09N 34°37' E 135°26'0 0.0
2016-May-30 01:27N 34°37' E 135°26'0 0.0
2016-May-30 00:33N 34°37' E 135°26'0 0.0
2016-May-29 23:33N 34°37' E 135°26'0 0.0
2016-May-29 22:15N 34°37' E 135°26'0 0.0
2016-May-29 21:27N 34°37' E 135°26'0 0.0
2016-May-29 20:33N 34°37' E 135°26'0 0.0
2016-May-29 19:33N 34°37' E 135°26'0 0.0
2016-May-29 18:33N 34°37' E 135°26'0 0.0
2016-May-29 17:33N 34°37' E 135°26'0 0.0
2016-May-29 16:33N 34°37' E 135°26'0 0.0
2016-May-29 15:21N 34°37' E 135°26'0 0.0
2016-May-29 14:33N 34°37' E 135°26'0 0.0
2016-May-29 13:33N 34°37' E 135°26'0 0.0
2016-May-29 12:33N 34°37' E 135°26'0 0.0
2016-May-29 11:27N 34°37' E 135°26'0 0.0
2016-May-29 10:27N 34°37' E 135°26'0 0.0
2016-May-29 09:33N 34°37' E 135°26'0 0.0
2016-May-29 08:33N 34°37' E 135°26'0 0.0
2016-May-29 07:27N 34°37' E 135°26'0 0.0
2016-May-29 06:15N 34°37' E 135°26'0 0.1
2016-May-29 05:33N 34°37' E 135°26'0 0.0
2016-May-29 04:33N 34°37' E 135°26'0 0.0
2016-May-29 03:27N 34°37' E 135°26'0 0.0
2016-May-29 02:33N 34°37' E 135°26'0 0.0
2016-May-29 01:33N 34°37' E 135°26'1 1.1
2016-May-29 00:33N 34°37' E 135°24'6 5.8
2016-May-28 23:33N 34°35' E 135°18'0 0.0
2016-May-28 22:33N 34°35' E 135°18'6 6.0
2016-May-28 21:33N 34°30' E 135°14'1211.9
2016-May-28 20:32N 34°21' E 135°04'1010.6
2016-May-28 19:33N 34°11' E 134°59'1312.7
2016-May-28 18:32N 33°59' E 135°00'23111.0
2016-May-27 21:33N 34°41' E 139°35'1512.5
2016-May-27 20:23N 34°48' E 139°50'1011.9
2016-May-27 19:33N 34°53' E 140°01'1111.2
2016-May-27 18:33N 34°58' E 140°13'1510.1
2016-May-27 17:04N 35°06' E 140°28'5 8.9
2016-May-27 16:29N 35°10' E 140°32'5111.5
2016-May-27 12:05N 35°56' E 140°58'  
2016-May-24 23:30N 36°37' E 141°03'1313.2
2016-May-24 22:33N 36°24' E 141°02'1313.5
2016-May-24 21:33N 36°11' E 141°00'1313.1
2016-May-24 20:33N 35°58' E 140°58'1513.4
2016-May-24 19:25N 35°43' E 140°57'1213.0
2016-May-24 18:32N 35°32' E 140°50'1313.5
2016-May-24 17:33N 35°21' E 140°41'2114.9
2016-May-24 16:09N 35°05' E 140°25'915.1
2016-May-24 15:33N 34°59' E 140°17'1514.7
2016-May-24 14:33N 34°52' E 140°01'1413.7
2016-May-24 13:33N 34°46' E 139°46'1313.1
2016-May-24 12:33N 34°40' E 139°32'1313.1
2016-May-24 11:34N 34°36' E 139°17'1313.2
2016-May-24 10:33N 34°33' E 139°01'20311.7
2016-May-23 17:11N 33°52' E 135°00'1012.9
2016-May-23 16:25N 34°01' E 134°60'1112.9
2016-May-23 15:33N 34°13' E 134°59'1111.2
2016-May-23 14:33N 34°23' E 135°02'1212.5
2016-May-23 13:33N 34°32' E 135°13'1111.4
2016-May-23 12:33N 34°37' E 135°25'0 0.4
2016-May-23 11:32N 34°37' E 135°26'0 0.0
2016-May-23 10:32N 34°37' E 135°26'0 0.0
2016-May-23 09:32N 34°37' E 135°26'0 0.0
2016-May-23 07:32N 34°37' E 135°26'0 0.0
2016-May-23 06:20N 34°37' E 135°26'0 0.0
2016-May-23 05:26N 34°37' E 135°26'0 0.0
2016-May-23 04:32N 34°37' E 135°26'0 0.0
2016-May-23 03:32N 34°37' E 135°26'0 0.0
2016-May-23 02:26N 34°37' E 135°26'0 0.1
2016-May-23 01:32N 34°37' E 135°26'0 0.0
2016-May-23 00:32N 34°37' E 135°26'0 0.0
2016-May-22 23:26N 34°37' E 135°26'0 0.0
2016-May-22 22:32N 34°37' E 135°26'0 0.0
2016-May-22 21:20N 34°37' E 135°26'0 0.0
2016-May-22 20:32N 34°37' E 135°26'0 0.0
2016-May-22 19:32N 34°37' E 135°26'0 0.0
2016-May-22 18:32N 34°37' E 135°26'0 0.0
2016-May-22 17:32N 34°37' E 135°26'0 0.0
2016-May-22 16:32N 34°37' E 135°26'0 0.0
2016-May-22 15:08N 34°37' E 135°26'0 0.0
2016-May-22 14:32N 34°37' E 135°26'0 0.0
2016-May-22 13:32N 34°37' E 135°26'0 0.0
2016-May-22 12:32N 34°37' E 135°26'0 0.0
2016-May-22 11:32N 34°37' E 135°26'0 0.0
2016-May-22 10:32N 34°37' E 135°26'0 0.0
2016-May-22 09:32N 34°37' E 135°26'0 0.0
2016-May-22 08:26N 34°37' E 135°26'0 0.0
2016-May-22 07:20N 34°37' E 135°26'0 0.0
2016-May-22 06:32N 34°37' E 135°26'0 0.0
2016-May-22 05:32N 34°37' E 135°26'0 0.0
2016-May-22 04:32N 34°37' E 135°26'0 0.0
2016-May-22 03:32N 34°37' E 135°26'0 0.0
2016-May-22 02:26N 34°37' E 135°26'0 0.1
2016-May-22 01:32N 34°37' E 135°26'5 5.6
2016-May-22 00:33N 34°36' E 135°19'1 0.7
2016-May-21 23:30N 34°35' E 135°18'0 0.0
2016-May-21 22:30N 34°35' E 135°18'7 6.9
2016-May-21 21:33N 34°30' E 135°13'1612.1
2016-May-21 20:16N 34°19' E 135°00'911.5
2016-May-21 19:30N 34°10' E 134°59'  

Dump ship's entire track history